Scarborough, ME (04070)

5:47 AM EST on January 19, 2017 (GMT -0500)
Eastern Village - Scarborough | | Change Station

Elev 82 ft 43.58 °N, 70.34 °W | Updated 9 seconds ago

Overcast
Overcast
27.3 °F
Feels Like 27 °F
N
0.0
Wind Variable Wind from WNW
Gusts 0.0 mph

Today
High -- | Low -- °F
--% Chance of Precip.
Yesterday
High -- | Low -- °F
Precip. -- in
Pressure 30.00 in
Visibility 1.5 miles
Clouds Overcast 2300 ft
Windchill 27 °F
Dew Point 25 °F
Humidity 92%
Rainfall 0.00 in
Snow Depth Not available.
7:08 AM 4:35 PM
Waning Gibbous, 55% visible
METAR KPWM 190951Z 00000KT 1 1/2SM -SN BR OVC023 M04/M05 A2999 RMK AO2 SLP157 P0001 T10391050
Pressure 30.00 in
Visibility 1.5 miles
Clouds Overcast 2300 ft
Windchill 27 °F
Dew Point 25 °F
Humidity 92%
Rainfall 0.00 in
Snow Depth Not available.
7:08 AM 4:35 PM
Waning Gibbous, 55% visible
METAR KPWM 190951Z 00000KT 1 1/2SM -SN BR OVC023 M04/M05 A2999 RMK AO2 SLP157 P0001 T10391050

Get Your Daily Forecast Email!

Thanks for signing up!

Be on the lookout for a verification email in your inbox.

You'll start receiving the daily forecast at 8 AM.

×

10-Day Weather Forecast

Almanac

Astronomy

Jan. 19, 2017 Rise Set
Actual Time
Civil Twilight
Nautical Twilight
Astronomical Twilight
Moon
Length of Visible Light
Length of Day
Tomorrow will be .
, % of the Moon is Illuminated

Today's Extremes

State Highs State Lows

Community

WunderPhotos

Upload Photos

1,962,540 photos uploaded!

WunderBlog® & News

Nearby

Air Quality

  Air Quality AQ Index Pollutant
Not available.

Snow Depth

Station Depth Elevation

Earthquake Activity

City Distance Mag. Time & Date
Minimum magnitude displayed is 2.5.

Coastal Water Temperatures

Place Temperature

Stations

Nearby Weather Stations

Station Location Temp. Windchill Dew Point Humidity Wind Precip. Elev Updated Type
                   

Watches & Warnings

Small Craft for Hazardous Seas Advisory
Issued: 3:49 AM EST Jan. 19, 2017 – National Weather Service

... Small Craft Advisory for hazardous seas in effect until 3 PM
EST this afternoon...
... Small Craft Advisory is cancelled...

The National Weather Service in gray has issued a Small Craft
Advisory for hazardous seas... which is in effect until 3 PM EST
this afternoon. The Small Craft Advisory has been cancelled.

* Seas... 4 to 7 feet.

Precautionary/preparedness actions...

A Small Craft Advisory for hazardous seas means that waves are
expected to be hazardous to small craft. Mariners should avoid
shoaling areas. Long period swell can sharpen into large breaking
waves in shoaling areas. It is not unusual for waves to break
much farther from shoaling areas than is normally experienced.
Remember... breaking waves can easily capsize even larger vessels.